Time;durP1;ratioP1;P1;durP2;ratioP2;P2;SDS_P1;SDS_P2;PMS_P1;PMS_P2;Temp;Humidity;BMP_temperature;BMP_pressure;BME280_temperature;BME280_humidity;BME280_pressure;Samples;Min_cycle;Max_cycle;Signal;HPM_P1;HPM_P2
2022/02/02 00:00:47;;;;;;;6.80;3.63;;;;;;;5.73;52.43;99822.41;5065954;28;20040;-76
2022/02/02 00:03:22;;;;;;;5.32;3.50;;;;;;;5.78;52.25;99827.72;5058524;28;20033;-76
2022/02/02 00:06:05;;;;;;;11.30;5.82;;;;;;;5.79;51.63;99832.09;5077112;28;20044;-76
2022/02/02 00:08:46;;;;;;;11.10;4.57;;;;;;;5.93;51.21;99840.13;5058533;28;20059;-76
2022/02/02 00:19:01;;;;;;;20.38;7.97;;;;;;;6.03;51.54;99844.41;5076420;28;20039;-76
2022/02/02 00:21:43;;;;;;;14.38;7.20;;;;;;;5.86;51.58;99839.00;5058492;28;20119;-76
2022/02/02 00:24:20;;;;;;;9.57;4.40;;;;;;;5.88;51.77;99836.72;5076776;28;20020;-76
2022/02/02 00:26:47;;;;;;;8.65;4.57;;;;;;;5.81;51.70;99836.47;5059008;28;20055;-76
2022/02/02 00:29:18;;;;;;;7.82;4.80;;;;;;;5.77;52.93;99842.66;5058373;28;20454;-75
2022/02/02 00:31:54;;;;;;;9.77;3.85;;;;;;;5.71;53.29;99832.97;5058288;28;20462;-77
2022/02/02 00:34:24;;;;;;;6.63;4.00;;;;;;;5.54;52.99;99830.38;5057842;28;20028;-77
2022/02/02 00:36:57;;;;;;;14.13;7.65;;;;;;;5.55;53.36;99834.75;5059144;28;20036;-77
2022/02/02 00:39:24;;;;;;;13.05;5.45;;;;;;;5.60;52.63;99826.28;5058182;28;20120;-76
2022/02/02 00:41:57;;;;;;;14.52;7.50;;;;;;;5.50;52.07;99826.69;5058075;28;20493;-77
2022/02/02 00:44:29;;;;;;;12.30;5.28;;;;;;;5.57;52.02;99846.25;5058087;28;20028;-77
2022/02/02 00:47:00;;;;;;;7.78;4.28;;;;;;;5.46;53.19;99853.31;5076301;28;20085;-77
2022/02/02 00:49:29;;;;;;;6.90;4.00;;;;;;;5.45;53.99;99846.19;5058311;28;20442;-74
2022/02/02 00:51:59;;;;;;;7.03;4.35;;;;;;;5.46;54.34;99848.59;5058344;28;20039;-77
2022/02/02 00:54:27;;;;;;;5.18;3.45;;;;;;;5.48;53.49;99848.25;5058379;28;20043;-75
2022/02/02 00:56:59;;;;;;;10.77;4.82;;;;;;;5.41;54.00;99850.75;5058788;28;20523;-75
2022/02/02 00:59:32;;;;;;;13.45;6.40;;;;;;;5.29;53.54;99839.66;5058461;28;20025;-75
2022/02/02 01:02:00;;;;;;;21.60;7.05;;;;;;;5.32;55.25;99847.25;5057516;28;20047;-76
2022/02/02 01:04:26;;;;;;;6.35;3.60;;;;;;;5.30;54.72;99839.31;5058043;28;20071;-76
2022/02/02 01:07:07;;;;;;;8.73;3.90;;;;;;;5.26;54.19;99830.91;5058104;28;20035;-76
2022/02/02 01:09:43;;;;;;;11.63;3.85;;;;;;;5.21;55.54;99838.56;5057948;28;20498;-76
2022/02/02 01:12:41;;;;;;;6.90;3.85;;;;;;;5.11;55.07;99837.00;5057657;28;20021;-76
2022/02/02 01:20:29;;;;;;;8.10;3.25;;;;;;;4.98;56.31;99838.09;5075740;28;20033;-76
2022/02/02 01:28:26;;;;;;;3.85;2.60;;;;;;;4.89;57.11;99854.66;5076220;28;20043;-76
2022/02/02 01:30:56;;;;;;;7.63;3.20;;;;;;;4.90;56.26;99841.69;5057634;28;20020;-76
2022/02/02 01:33:31;;;;;;;9.70;4.13;;;;;;;4.93;56.07;99843.78;5075284;28;20024;-76
2022/02/02 01:35:57;;;;;;;5.32;3.15;;;;;;;4.90;57.48;99852.72;5053805;28;20049;-76
2022/02/02 01:38:31;;;;;;;4.40;2.63;;;;;;;4.90;56.65;99855.47;5054079;28;20033;-76
2022/02/02 01:41:06;;;;;;;5.13;2.55;;;;;;;4.85;56.36;99858.44;5054611;28;20104;-76
2022/02/02 01:43:57;;;;;;;2.67;2.20;;;;;;;4.86;56.60;99855.34;5053995;28;20036;-76
2022/02/02 01:46:24;;;;;;;5.82;2.63;;;;;;;4.92;56.36;99862.28;5054969;28;20399;-76
2022/02/02 01:49:57;;;;;;;4.93;2.42;;;;;;;4.88;56.31;99855.00;5053886;28;20036;-75
2022/02/02 01:56:50;;;;;;;4.03;1.88;;;;;;;4.77;57.36;99820.69;5054998;28;20045;-76
2022/02/02 01:59:38;;;;;;;5.35;2.00;;;;;;;4.74;57.57;99800.13;5053501;28;20029;-76
2022/02/02 02:02:09;;;;;;;3.85;1.83;;;;;;;4.71;57.90;99807.09;5053615;28;20029;-76
2022/02/02 02:04:42;;;;;;;3.33;1.58;;;;;;;4.64;58.39;99804.06;5054119;28;20107;-76
2022/02/02 02:07:10;;;;;;;2.55;1.63;;;;;;;4.60;58.77;99805.06;5055166;28;20052;-75
2022/02/02 02:09:36;;;;;;;4.90;1.77;;;;;;;4.50;59.25;99805.44;5053492;28;20086;-76
2022/02/02 02:12:04;;;;;;;2.67;1.80;;;;;;;4.53;58.18;99799.25;5053826;28;20033;-76
2022/02/02 02:16:56;;;;;;;8.82;2.58;;;;;;;4.52;58.52;99798.44;5054926;28;20124;-76
2022/02/02 02:19:23;;;;;;;5.30;1.88;;;;;;;4.46;58.34;99799.78;5053822;28;20063;-76
2022/02/02 02:21:53;;;;;;;4.22;2.10;;;;;;;4.29;59.56;99777.81;5053640;28;20044;-76
2022/02/02 02:24:22;;;;;;;6.22;3.05;;;;;;;4.33;59.06;99785.09;5053226;28;20026;-76
2022/02/02 02:26:51;;;;;;;3.10;2.25;;;;;;;4.27;59.07;99783.66;5054212;28;20364;-76
2022/02/02 02:56:40;;;;;;;6.97;2.58;;;;;;;3.92;59.60;99747.19;5073934;28;20043;-76
2022/02/02 02:59:13;;;;;;;5.47;2.83;;;;;;;3.91;59.30;99756.56;5055646;28;20028;-77
2022/02/02 03:34:36;;;;;;;93.03;45.05;;;;;;;3.73;60.07;99716.47;5074229;28;20086;-76
2022/02/02 03:35:24;;;;;;;87.95;41.85;;;;;;;3.76;60.90;99724.09;5060398;28;20080;-77
2022/02/02 04:02:51;;;;;;;20.02;11.38;;;;;;;3.42;61.93;99742.28;5077013;28;20036;-77
2022/02/02 04:05:28;;;;;;;18.27;12.40;;;;;;;3.35;61.54;99751.00;5059146;28;20429;-77
2022/02/02 04:08:06;;;;;;;19.58;12.15;;;;;;;3.35;60.50;99756.50;5059799;28;20433;-77
2022/02/02 04:10:35;;;;;;;18.73;9.30;;;;;;;3.30;60.85;99737.47;5058966;28;20031;-77
2022/02/02 04:59:35;;;;;;;15.80;8.05;;;;;;;3.14;60.61;99777.53;5076387;28;20124;-77
2022/02/02 05:08:06;;;;;;;7.15;4.93;;;;;;;3.00;61.04;99763.97;5076069;28;20056;-77
2022/02/02 05:53:18;;;;;;;9.43;6.68;;;;;;;2.85;60.74;99758.94;5074569;28;20035;-76
2022/02/02 05:55:46;;;;;;;12.10;5.20;;;;;;;2.90;60.49;99756.03;5057478;28;20036;-76
2022/02/02 05:58:14;;;;;;;6.82;4.00;;;;;;;2.94;58.74;99767.22;5057664;28;20355;-76
2022/02/02 06:00:52;;;;;;;12.95;4.90;;;;;;;2.88;59.92;99763.81;5056847;28;20360;-77
2022/02/02 06:03:37;;;;;;;13.07;6.80;;;;;;;2.79;59.95;99735.50;5056376;28;20051;-76
2022/02/02 06:06:02;;;;;;;14.35;7.30;;;;;;;2.92;61.04;99764.75;5056568;28;20064;-77
2022/02/02 06:08:32;;;;;;;13.45;7.22;;;;;;;2.87;61.09;99764.91;5055934;28;20505;-76
2022/02/02 06:11:06;;;;;;;11.30;7.63;;;;;;;2.91;62.37;99773.34;5056894;28;20525;-76
2022/02/02 06:13:40;;;;;;;14.63;6.93;;;;;;;2.91;62.68;99757.66;5056168;28;20033;-76
2022/02/02 06:16:12;;;;;;;21.85;7.60;;;;;;;2.83;62.25;99748.28;5056263;28;20067;-76
2022/02/02 06:18:43;;;;;;;23.88;12.90;;;;;;;2.85;61.77;99748.75;5056344;28;20048;-76
2022/02/02 06:21:09;;;;;;;17.33;9.38;;;;;;;2.88;61.83;99739.09;5074089;28;20082;-75
2022/02/02 06:23:37;;;;;;;19.25;8.30;;;;;;;3.10;61.49;99749.09;5074209;28;20051;-75
2022/02/02 06:26:07;;;;;;;16.77;8.40;;;;;;;3.91;60.43;99762.09;5056132;28;20025;-76
2022/02/02 06:28:35;;;;;;;20.50;12.52;;;;;;;4.60;56.34;99766.47;5055987;28;20024;-75
2022/02/02 06:31:05;;;;;;;25.70;16.23;;;;;;;5.22;53.62;99771.25;5056077;28;20052;-75
2022/02/02 06:33:35;;;;;;;24.00;12.75;;;;;;;5.82;52.91;99767.13;5056131;28;20088;-75
2022/02/02 06:36:09;;;;;;;42.10;25.08;;;;;;;6.46;50.22;99774.03;5056182;28;20506;-76
2022/02/02 06:38:41;;;;;;;71.45;37.10;;;;;;;6.99;49.12;99755.53;5056490;28;20032;-76
2022/02/02 06:41:08;;;;;;;56.70;31.85;;;;;;;7.59;47.80;99743.44;5056485;28;20098;-76
2022/02/02 06:43:39;;;;;;;32.75;21.67;;;;;;;8.20;45.81;99739.50;5056572;28;20035;-76
2022/02/02 06:46:06;;;;;;;29.60;17.83;;;;;;;8.68;44.97;99745.81;5056631;28;20078;-75
2022/02/02 06:48:36;;;;;;;23.35;14.75;;;;;;;9.22;44.05;99747.84;5056558;28;20032;-76
2022/02/02 06:51:11;;;;;;;18.73;13.05;;;;;;;9.88;43.51;99752.31;5056527;28;20031;-76
2022/02/02 06:53:56;;;;;;;18.50;11.68;;;;;;;10.35;40.92;99756.78;5056780;28;20052;-75
2022/02/02 07:10:32;;;;;;;32.17;20.05;;;;;;;12.57;36.21;99775.09;5075323;28;20074;-75
2022/02/02 07:16:19;;;;;;;30.35;17.73;;;;;;;13.28;34.18;99774.00;5075065;28;20044;-76
2022/02/02 07:30:46;;;;;;;20.80;13.02;;;;;;;14.91;31.36;99787.59;5055652;28;20490;-76
2022/02/02 07:33:23;;;;;;;19.75;10.45;;;;;;;15.07;31.19;99781.53;5061495;28;20020;-76
2022/02/02 07:36:06;;;;;;;17.25;8.15;;;;;;;15.23;29.86;99788.72;5057627;28;20045;-76
2022/02/02 07:38:45;;;;;;;14.68;9.25;;;;;;;15.27;30.59;99778.31;5060295;28;20028;-76
2022/02/02 07:41:14;;;;;;;12.93;8.55;;;;;;;15.42;29.79;99782.66;5058238;28;20021;-76
2022/02/02 07:43:49;;;;;;;18.63;10.07;;;;;;;14.75;30.54;99775.19;5058225;28;20083;-76
2022/02/02 07:46:17;;;;;;;5.60;3.60;;;;;;;14.68;29.37;99768.38;5058709;28;20475;-76
2022/02/02 07:48:47;;;;;;;8.00;5.22;;;;;;;14.63;29.97;99771.56;5057673;28;20033;-76
2022/02/02 07:51:14;;;;;;;6.68;4.45;;;;;;;14.52;30.43;99770.78;5058435;28;20032;-76
2022/02/02 07:53:48;;;;;;;16.33;9.48;;;;;;;14.94;30.44;99766.38;5042764;28;20037;-77
2022/02/02 07:56:27;;;;;;;10.77;7.85;;;;;;;15.04;29.51;99762.75;5058782;28;20111;-76
2022/02/02 07:59:11;;;;;;;16.95;6.93;;;;;;;14.93;29.76;99748.75;5059305;28;20040;-77
2022/02/02 08:01:39;;;;;;;8.77;6.28;;;;;;;14.99;27.84;99743.53;5060042;28;20403;-76
2022/02/02 08:04:08;;;;;;;7.90;6.63;;;;;;;15.16;29.01;99742.69;5058438;28;20039;-77
2022/02/02 08:06:35;;;;;;;17.75;9.93;;;;;;;14.85;29.34;99749.16;5056682;28;20056;-75
2022/02/02 08:09:04;;;;;;;10.02;6.65;;;;;;;14.60;29.27;99755.59;5056777;28;20041;-75
2022/02/02 08:11:35;;;;;;;10.05;7.55;;;;;;;14.59;29.96;99759.56;5056606;28;20029;-75
2022/02/02 08:14:05;;;;;;;10.82;7.82;;;;;;;14.70;29.79;99739.19;5056901;28;20124;-74
2022/02/02 08:16:37;;;;;;;13.38;7.78;;;;;;;15.44;29.13;99766.22;5055841;28;20087;-74
2022/02/02 08:19:05;;;;;;;17.95;13.50;;;;;;;15.53;28.10;99777.81;5056480;28;20411;-75
2022/02/02 08:21:30;;;;;;;14.93;11.15;;;;;;;15.51;28.11;99771.81;5055566;28;20376;-75
2022/02/02 08:24:01;;;;;;;31.35;19.50;;;;;;;15.84;28.08;99758.47;5056927;28;20052;-77
2022/02/02 08:26:33;;;;;;;10.57;7.53;;;;;;;15.76;27.01;99756.91;5056628;28;20028;-78
2022/02/02 08:29:02;;;;;;;10.82;5.95;;;;;;;16.28;26.92;99757.00;5056529;28;20087;-78
2022/02/02 08:31:30;;;;;;;10.63;4.72;;;;;;;15.85;27.86;99754.47;5054194;28;20028;-77
2022/02/02 08:34:01;;;;;;;14.90;9.13;;;;;;;15.98;26.57;99752.81;5054743;28;20037;-76
2022/02/02 08:36:27;;;;;;;10.93;4.95;;;;;;;15.76;28.03;99762.53;5054982;28;20049;-77
2022/02/02 08:39:12;;;;;;;7.38;4.05;;;;;;;15.25;28.57;99767.50;5054962;28;20029;-76
2022/02/02 08:41:52;;;;;;;8.23;5.35;;;;;;;14.97;29.49;99762.78;5055852;28;20025;-76
2022/02/02 08:44:40;;;;;;;17.77;7.68;;;;;;;14.34;30.55;99767.16;5056216;28;20120;-76
2022/02/02 08:47:09;;;;;;;18.58;7.10;;;;;;;14.26;30.41;99768.34;5057510;28;20071;-77
2022/02/02 08:49:41;;;;;;;17.13;9.07;;;;;;;13.84;31.19;99767.84;5056965;28;20043;-76
2022/02/02 08:52:10;;;;;;;30.67;12.33;;;;;;;14.11;30.29;99768.34;5056199;28;20418;-76
2022/02/02 08:54:47;;;;;;;27.65;11.27;;;;;;;14.66;30.51;99753.19;5055789;28;20037;-76
2022/02/02 09:02:27;;;;;;;26.75;14.27;;;;;;;15.49;28.63;99756.59;5058170;28;20042;-79
2022/02/02 09:07:44;;;;;;;22.58;12.43;;;;;;;15.86;26.01;99747.66;5056784;28;20043;-79
2022/02/02 09:10:18;;;;;;;6.82;4.13;;;;;;;16.13;24.11;99762.72;5054337;28;20039;-79
2022/02/02 09:23:46;;;;;;;4.28;2.88;;;;;;;15.84;23.51;99769.72;5055257;28;20487;-77
2022/02/02 09:31:24;;;;;;;5.30;3.55;;;;;;;15.72;24.60;99773.78;5055359;28;20029;-77
2022/02/02 09:32:09;;;;;;;6.68;3.97;;;;;;;16.10;24.50;99777.56;5055475;28;20110;-76
2022/02/02 09:34:33;;;;;;;6.25;4.38;;;;;;;15.45;24.82;99788.28;5036296;28;20514;-76
2022/02/02 09:37:01;;;;;;;6.55;3.78;;;;;;;15.17;24.68;99780.72;5035939;28;20056;-76
2022/02/02 09:39:29;;;;;;;8.18;4.78;;;;;;;15.89;24.21;99777.69;5035833;28;20045;-76
2022/02/02 09:42:06;;;;;;;5.18;4.30;;;;;;;16.44;24.30;99788.97;5035486;28;20029;-76
2022/02/02 09:44:39;;;;;;;5.28;3.88;;;;;;;16.63;23.43;99801.69;5035314;28;20068;-76
2022/02/02 09:47:19;;;;;;;6.30;3.83;;;;;;;16.63;22.82;99798.88;5039818;28;20093;-76
2022/02/02 09:49:58;;;;;;;2.72;2.10;;;;;;;16.00;22.22;99795.28;5052542;28;20048;-76
2022/02/02 09:52:33;;;;;;;3.72;2.58;;;;;;;16.36;22.58;99800.69;5035559;28;20044;-76
2022/02/02 09:58:17;;;;;;;4.25;2.47;;;;;;;15.99;23.63;99804.91;5052605;28;20079;-75
2022/02/02 10:03:34;;;;;;;3.10;2.42;;;;;;;16.20;22.96;99810.41;5052362;28;20112;-76
2022/02/02 10:06:55;;;;;;;6.00;3.80;;;;;;;17.25;23.27;99794.31;5053324;28;20048;-75
2022/02/02 10:09:20;;;;;;;7.75;4.20;;;;;;;17.53;22.28;99793.22;5045684;28;20110;-76
2022/02/02 10:12:31;;;;;;;7.07;3.22;;;;;;;17.42;23.12;99800.97;5052658;28;20041;-75
2022/02/02 10:14:49;;;;;;;5.07;2.65;;;;;;;17.89;22.23;99787.94;5053206;28;20025;-76
2022/02/02 10:17:17;;;;;;;5.05;3.05;;;;;;;17.70;22.60;99780.94;5053933;28;20475;-75
2022/02/02 10:19:46;;;;;;;4.90;3.35;;;;;;;18.23;22.41;99784.28;5052776;28;20485;-76
2022/02/02 10:22:44;;;;;;;4.38;3.72;;;;;;;18.36;21.84;99787.28;5036247;28;20464;-75
2022/02/02 10:25:23;;;;;;;3.25;2.65;;;;;;;18.40;22.08;99782.41;5052052;28;20391;-76
2022/02/02 10:27:52;;;;;;;3.97;3.28;;;;;;;18.64;21.65;99772.75;5052717;28;20060;-75
2022/02/02 10:30:24;;;;;;;9.80;6.25;;;;;;;18.94;21.25;99771.09;5052877;28;20101;-75
2022/02/02 10:33:05;;;;;;;8.13;5.05;;;;;;;19.30;21.32;99782.50;5052681;28;20129;-76
2022/02/02 10:35:41;;;;;;;19.13;14.82;;;;;;;19.14;21.04;99788.84;5051888;28;20057;-76
2022/02/02 10:38:12;;;;;;;8.43;5.03;;;;;;;19.12;20.91;99774.38;5052370;28;20045;-75
2022/02/02 10:40:56;;;;;;;7.80;4.85;;;;;;;19.14;21.08;99769.09;5052949;28;20083;-76
2022/02/02 10:43:43;;;;;;;5.05;3.67;;;;;;;19.57;21.05;99771.09;5052196;28;20033;-75
2022/02/02 10:46:53;;;;;;;9.75;6.90;;;;;;;19.95;20.91;99754.59;5052682;28;20384;-75
2022/02/02 10:52:11;;;;;;;12.07;7.53;;;;;;;19.52;20.56;99749.03;5053494;28;20037;-75
2022/02/02 10:55:16;;;;;;;5.78;3.90;;;;;;;18.66;20.91;99732.91;5052625;28;20456;-75
2022/02/02 11:00:36;;;;;;;5.45;3.72;;;;;;;19.42;20.59;99738.75;5053150;28;20041;-75
2022/02/02 11:08:41;;;;;;;7.65;5.35;;;;;;;19.49;21.02;99735.78;5053635;28;20063;-76
2022/02/02 11:11:11;;;;;;;6.85;4.80;;;;;;;19.36;20.85;99727.19;5051893;28;20052;-75
2022/02/02 11:13:42;;;;;;;7.80;5.97;;;;;;;19.51;20.89;99724.88;5053275;28;20036;-75
2022/02/02 11:16:17;;;;;;;8.98;5.57;;;;;;;18.28;20.67;99721.84;5051850;28;20035;-75
2022/02/02 11:18:47;;;;;;;9.40;5.57;;;;;;;18.58;20.77;99720.94;5052467;28;20104;-76
2022/02/02 11:21:23;;;;;;;11.52;6.50;;;;;;;18.90;20.80;99717.59;5051870;28;20025;-75
2022/02/02 11:23:51;;;;;;;9.38;6.40;;;;;;;18.67;20.92;99714.75;5052658;28;20052;-75
2022/02/02 11:26:42;;;;;;;12.07;8.20;;;;;;;18.40;21.13;99720.44;5051938;28;20079;-76
2022/02/02 11:29:30;;;;;;;12.80;6.47;;;;;;;17.64;21.18;99725.56;5052119;28;20031;-75
2022/02/02 11:32:10;;;;;;;10.18;5.97;;;;;;;16.56;22.72;99717.47;5051966;28;20036;-75
2022/02/02 11:34:36;;;;;;;17.13;7.43;;;;;;;16.70;22.63;99714.53;5052333;28;20103;-75
2022/02/02 11:37:04;;;;;;;13.27;7.68;;;;;;;17.04;22.24;99699.75;5052072;28;20025;-75
2022/02/02 11:39:33;;;;;;;18.48;11.45;;;;;;;17.12;22.69;99701.28;5053768;28;20024;-76
2022/02/02 11:42:10;;;;;;;12.90;7.60;;;;;;;16.90;22.44;99702.75;5051941;28;20025;-76
2022/02/02 11:45:06;;;;;;;25.52;15.52;;;;;;;16.97;22.01;99697.03;5051942;28;20029;-75
2022/02/02 11:47:45;;;;;;;8.93;5.78;;;;;;;16.01;23.23;99673.41;5051909;28;20021;-75
2022/02/02 11:50:13;;;;;;;12.32;8.05;;;;;;;16.61;23.24;99686.13;5052501;28;20067;-76
2022/02/02 11:52:45;;;;;;;14.15;10.05;;;;;;;16.75;23.21;99682.41;5052008;28;20029;-75
2022/02/02 11:55:13;;;;;;;10.88;7.03;;;;;;;16.82;22.39;99679.53;5052892;28;20029;-76
2022/02/02 11:58:12;;;;;;;13.73;9.40;;;;;;;16.89;22.22;99670.25;5052765;28;20418;-75
2022/02/02 12:00:57;;;;;;;18.30;8.80;;;;;;;16.60;22.93;99670.50;5051675;28;20025;-75
2022/02/02 12:06:33;;;;;;;13.45;7.60;;;;;;;16.59;23.35;99680.13;5054461;28;20037;-76
2022/02/02 12:09:27;;;;;;;9.68;6.15;;;;;;;17.07;23.70;99682.06;5055422;28;20035;-76
2022/02/02 12:53:32;;;;;;;11.70;8.85;;;;;;;16.18;23.60;99671.66;5056190;28;20074;-76
2022/02/02 12:53:41;;;;;;;7.00;4.43;;;;;;;15.69;24.07;99665.19;5055751;28;20095;-75
2022/02/02 12:56:24;;;;;;;11.52;4.90;;;;;;;16.36;24.48;99671.53;5055618;28;20450;-76
2022/02/02 12:58:51;;;;;;;5.80;5.23;;;;;;;15.84;29.54;99665.91;5055039;28;20033;-76
2022/02/02 13:01:20;;;;;;;8.73;5.97;;;;;;;16.11;30.50;99661.31;5054438;28;20040;-76
2022/02/02 13:03:47;;;;;;;8.38;4.43;;;;;;;16.20;30.63;99678.47;5054987;28;20475;-76
2022/02/02 13:06:18;;;;;;;5.90;4.75;;;;;;;16.06;30.30;99672.16;5055240;28;20383;-75
2022/02/02 13:08:53;;;;;;;8.65;4.97;;;;;;;15.63;31.13;99669.66;5055418;28;20111;-75
2022/02/02 13:11:31;;;;;;;8.05;4.97;;;;;;;15.59;32.01;99672.44;5054356;28;20033;-75
2022/02/02 13:14:10;;;;;;;11.05;3.97;;;;;;;15.57;32.37;99666.44;5054474;28;20071;-75
2022/02/02 13:16:46;;;;;;;9.27;5.00;;;;;;;15.39;32.30;99682.53;5054039;28;20044;-75
2022/02/02 13:19:28;;;;;;;7.07;4.95;;;;;;;15.32;32.10;99665.78;5053506;28;20025;-75
2022/02/02 13:22:09;;;;;;;5.45;3.45;;;;;;;15.06;32.30;99667.06;5055474;28;20028;-75
2022/02/02 13:24:44;;;;;;;4.72;4.32;;;;;;;15.32;32.47;99662.97;5054108;28;20029;-75
2022/02/02 13:27:17;;;;;;;10.65;5.32;;;;;;;15.47;32.37;99670.09;5055438;28;20108;-75
2022/02/02 13:29:50;;;;;;;6.95;4.22;;;;;;;15.28;32.01;99656.56;5054208;28;20032;-75
2022/02/02 13:32:25;;;;;;;7.72;4.78;;;;;;;14.96;33.20;99665.91;5055973;28;20071;-75
2022/02/02 13:59:20;;;;;;;10.85;4.90;;;;;;;15.35;35.34;99676.19;5056666;28;20040;-76
2022/02/02 14:01:55;;;;;;;8.20;5.95;;;;;;;15.36;36.20;99675.75;5054308;28;20178;-75
2022/02/02 14:31:06;;;;;;;;;;;;;;;14.60;39.42;99677.22;5054591;28;20124;-75
2022/02/02 14:31:46;;;;;;;5.30;4.80;;;;;;;14.61;39.63;99678.81;5054803;28;20044;-75
2022/02/02 14:34:15;;;;;;;9.48;5.90;;;;;;;14.48;40.47;99690.81;5052802;28;20052;-75
2022/02/02 14:36:41;;;;;;;10.40;6.55;;;;;;;14.50;40.15;99685.63;5056056;28;20024;-75
2022/02/02 14:39:25;;;;;;;9.00;6.90;;;;;;;14.30;40.79;99682.41;5055908;28;20264;-75
2022/02/02 14:41:57;;;;;;;7.20;6.07;;;;;;;14.32;40.61;99688.38;5056489;28;20025;-75
2022/02/02 14:44:31;;;;;;;12.00;7.05;;;;;;;14.29;40.57;99686.41;5056282;28;20123;-75
2022/02/02 14:49:36;;;;;;;6.53;4.00;;;;;;;14.07;39.96;99694.00;5073935;28;20044;-76
2022/02/02 14:52:58;;;;;;;7.47;5.50;;;;;;;13.77;41.16;99702.72;5055916;28;20115;-77
2022/02/02 15:31:00;;;;;;;13.50;6.95;;;;;;;12.99;38.75;99734.69;5073198;28;20066;-76
2022/02/02 15:33:28;;;;;;;14.93;9.02;;;;;;;12.80;39.34;99741.38;5073087;28;20029;-76
2022/02/02 15:37:02;;;;;;;15.38;10.70;;;;;;;12.80;40.13;99746.97;5055000;28;20083;-76
2022/02/02 15:38:53;;;;;;;20.10;12.90;;;;;;;12.71;39.77;99748.47;5070125;28;20517;-76
2022/02/02 15:41:32;;;;;;;17.63;10.43;;;;;;;12.56;40.67;99741.97;5056476;28;20033;-76
2022/02/02 15:55:17;;;;;;;18.98;10.52;;;;;;;11.91;41.89;99757.34;5077919;28;20044;-77
2022/02/02 16:03:23;;;;;;;26.13;15.52;;;;;;;11.41;44.13;99745.59;5077144;28;20040;-76
2022/02/02 16:06:05;;;;;;;41.75;25.15;;;;;;;11.35;44.31;99758.25;5059273;28;20462;-76
2022/02/02 16:08:34;;;;;;;37.10;23.73;;;;;;;11.18;45.15;99736.53;5076759;28;20093;-75
2022/02/02 16:11:16;;;;;;;27.65;18.90;;;;;;;11.22;45.27;99762.44;5042505;28;20037;-75
2022/02/02 16:37:43;;;;;;;49.67;31.25;;;;;;;10.01;48.38;99802.19;5076752;28;20093;-75
2022/02/02 16:40:13;;;;;;;48.15;31.42;;;;;;;9.92;49.28;99802.44;5058806;28;20128;-75
2022/02/02 16:45:23;;;;;;;58.03;36.97;;;;;;;9.69;49.70;99807.91;5078672;28;20036;-76
2022/02/02 16:47:49;;;;;;;53.45;37.10;;;;;;;9.67;50.18;99815.81;5060088;28;20092;-75
2022/02/02 16:50:34;;;;;;;72.18;46.88;;;;;;;9.64;50.56;99822.09;5043808;28;20032;-76
2022/02/02 16:53:26;;;;;;;80.70;50.38;;;;;;;9.58;50.75;99829.09;5059573;28;20497;-76
2022/02/02 17:31:06;;;;;;;108.85;65.78;;;;;;;8.53;52.36;99868.69;5075372;28;20449;-76
2022/02/02 17:33:40;;;;;;;134.50;78.28;;;;;;;8.44;51.94;99865.28;5057646;28;20024;-75
2022/02/02 17:36:32;;;;;;;137.02;78.22;;;;;;;8.37;52.33;99868.66;5054631;28;20560;-76
2022/02/02 17:39:03;;;;;;;148.60;80.25;;;;;;;8.32;52.88;99871.66;5056087;28;20040;-76
2022/02/02 17:41:59;;;;;;;130.68;76.45;;;;;;;8.29;52.54;99870.41;5053639;28;20033;-76
2022/02/02 18:20:03;;;;;;;148.63;87.63;;;;;;;7.53;53.28;99929.53;5055017;28;20040;-76
2022/02/02 18:22:39;;;;;;;151.60;89.43;;;;;;;7.50;53.27;99941.31;5053212;28;20037;-76
2022/02/02 18:25:23;;;;;;;136.38;79.72;;;;;;;7.45;53.16;99942.34;5053438;28;20388;-76
2022/02/02 18:28:47;;;;;;;120.78;75.28;;;;;;;7.38;53.23;99936.59;5053660;28;20072;-76
2022/02/02 18:33:51;;;;;;;200.35;115.18;;;;;;;7.45;52.88;99955.38;5054607;28;20037;-76
2022/02/02 18:46:56;;;;;;;253.88;138.23;;;;;;;7.25;55.41;99949.66;5073652;28;19908;-76
2022/02/02 18:49:55;;;;;;;314.75;168.85;;;;;;;7.25;55.86;99966.25;5055890;28;20032;-76
2022/02/02 19:15:27;;;;;;;207.55;122.38;;;;;;;7.13;55.55;99995.84;5074296;28;20048;-76
2022/02/02 20:09:50;;;;;;;144.85;88.53;;;;;;;6.65;57.11;100089.41;5076880;28;20048;-76
2022/02/02 20:12:13;;;;;;;141.57;87.03;;;;;;;6.66;57.38;100085.53;5076367;28;20471;-76
2022/02/02 20:14:39;;;;;;;147.65;93.82;;;;;;;6.64;58.06;100082.25;5059286;28;20039;-76
2022/02/02 20:17:06;;;;;;;149.52;89.65;;;;;;;6.66;58.83;100081.91;5059131;28;20394;-76
2022/02/02 20:19:32;;;;;;;159.15;99.70;;;;;;;6.69;58.86;100084.00;5058872;28;20123;-76
2022/02/02 20:22:00;;;;;;;156.13;101.35;;;;;;;6.65;59.33;100092.16;5058461;28;20028;-76
2022/02/02 20:24:34;;;;;;;172.57;104.53;;;;;;;6.61;59.26;100105.06;5059089;28;20494;-76
2022/02/02 20:27:02;;;;;;;196.30;111.70;;;;;;;6.43;59.54;100078.72;5058564;28;20086;-76
2022/02/02 20:29:27;;;;;;;196.10;112.07;;;;;;;6.56;58.61;100099.75;5058763;28;20032;-76
2022/02/02 20:31:53;;;;;;;163.48;100.53;;;;;;;6.57;59.16;100104.13;5058495;28;20389;-76
2022/02/02 20:34:21;;;;;;;176.00;97.22;;;;;;;6.50;58.15;100117.69;5058333;28;20094;-75
2022/02/02 20:36:49;;;;;;;154.60;89.03;;;;;;;6.49;57.56;100122.38;5058620;28;20058;-76
2022/02/02 20:39:35;;;;;;;137.13;84.07;;;;;;;6.44;58.01;100125.34;5058318;28;20115;-76
2022/02/02 20:42:04;;;;;;;148.98;87.47;;;;;;;6.45;56.87;100126.19;5058206;28;20111;-76
2022/02/02 20:45:13;;;;;;;140.98;80.88;;;;;;;6.47;56.53;100130.22;5058078;28;20037;-76
2022/02/02 21:09:30;;;;;;;125.30;75.32;;;;;;;6.43;55.33;100167.97;5075660;28;20040;-76
2022/02/02 21:14:40;;;;;;;160.02;95.82;;;;;;;6.39;56.02;100177.25;5075832;28;20169;-76
2022/02/02 21:17:18;;;;;;;136.38;82.25;;;;;;;6.36;56.03;100172.41;5057524;28;20036;-76
2022/02/02 21:20:34;;;;;;;128.57;77.55;;;;;;;6.33;55.62;100173.88;5075813;28;20506;-76
2022/02/02 21:22:34;;;;;;;109.75;63.47;;;;;;;6.36;55.50;100178.75;5064619;28;20055;-75
2022/02/02 21:25:30;;;;;;;116.03;64.55;;;;;;;6.35;55.31;100179.88;5057392;28;20040;-75
2022/02/02 21:28:01;;;;;;;188.07;96.63;;;;;;;6.61;55.18;100185.25;5074717;28;20036;-75
2022/02/02 21:30:31;;;;;;;111.32;68.45;;;;;;;6.65;54.81;100190.91;5057746;28;20713;-76
2022/02/02 21:32:57;;;;;;;99.40;62.58;;;;;;;6.52;54.96;100188.06;5057166;28;20502;-76
2022/02/02 21:35:24;;;;;;;154.50;79.85;;;;;;;6.41;55.72;100191.56;5056961;28;20045;-75
2022/02/02 21:38:01;;;;;;;104.90;65.15;;;;;;;6.42;56.77;100198.69;5057194;28;20027;-76
2022/02/02 21:40:27;;;;;;;97.10;58.45;;;;;;;6.46;55.05;100194.13;5056333;28;20174;-76
2022/02/02 21:42:57;;;;;;;93.85;55.50;;;;;;;6.38;55.42;100194.97;5057020;28;20032;-76
2022/02/02 21:45:28;;;;;;;83.63;50.15;;;;;;;6.38;55.64;100203.28;5075556;28;20040;-76
2022/02/02 21:47:57;;;;;;;86.20;51.55;;;;;;;6.34;55.97;100211.44;5057262;28;20064;-76
2022/02/02 21:50:23;;;;;;;106.32;61.80;;;;;;;6.24;56.60;100214.56;5057248;28;20379;-76
2022/02/02 21:52:52;;;;;;;91.28;52.83;;;;;;;6.34;55.96;100216.97;5057395;28;20078;-76
2022/02/02 21:55:18;;;;;;;88.07;49.42;;;;;;;6.28;55.69;100221.03;5075523;28;20036;-76
2022/02/02 21:57:44;;;;;;;100.47;57.97;;;;;;;6.30;56.90;100225.09;5056789;28;20390;-76
2022/02/02 22:00:12;;;;;;;94.13;55.03;;;;;;;6.30;56.18;100230.63;5056894;28;20028;-76
2022/02/02 22:02:41;;;;;;;100.43;58.05;;;;;;;6.31;56.46;100234.19;5057012;28;20471;-76
2022/02/02 22:05:09;;;;;;;104.30;61.50;;;;;;;6.34;56.64;100244.59;5057359;28;20363;-75
2022/02/02 22:07:38;;;;;;;85.82;48.85;;;;;;;6.39;56.18;100247.19;5056751;28;20086;-75
2022/02/02 22:10:09;;;;;;;90.00;52.85;;;;;;;6.22;56.42;100231.47;5057272;28;20431;-76
2022/02/02 22:12:37;;;;;;;106.13;56.22;;;;;;;6.40;56.54;100261.81;5055945;28;20039;-75
2022/02/02 22:15:10;;;;;;;82.95;47.47;;;;;;;6.34;56.14;100265.88;5056854;28;20107;-76
2022/02/02 22:17:35;;;;;;;81.32;46.55;;;;;;;6.31;56.29;100261.84;5074617;28;20029;-75
2022/02/02 22:20:06;;;;;;;85.28;54.97;;;;;;;6.29;56.61;100270.47;5056907;28;20024;-75
2022/02/02 22:22:35;;;;;;;74.60;42.38;;;;;;;6.20;56.47;100275.22;5056713;28;20036;-75
2022/02/02 22:25:01;;;;;;;73.35;44.28;;;;;;;6.16;56.65;100282.53;5057245;28;20374;-76
2022/02/02 22:27:27;;;;;;;101.10;59.50;;;;;;;6.21;57.16;100293.41;5057467;28;20048;-75